createdAt,value
2022-08-11T00:01:29.394Z,26.90
2022-08-11T00:03:59.045Z,26.90
2022-08-11T00:06:40.696Z,26.90
2022-08-11T00:09:18.341Z,26.90
2022-08-11T00:11:54.026Z,26.80
2022-08-11T00:14:36.770Z,26.80
2022-08-11T00:17:08.800Z,26.80
2022-08-11T00:20:15.193Z,26.80
2022-08-11T00:22:29.884Z,26.80
2022-08-11T00:25:01.733Z,26.80
2022-08-11T00:27:38.257Z,26.80
2022-08-11T00:30:09.792Z,26.80
2022-08-11T00:32:39.795Z,26.80
2022-08-11T00:35:54.680Z,26.80
2022-08-11T00:38:00.589Z,26.80
2022-08-11T00:40:57.220Z,26.80
2022-08-11T00:43:59.080Z,26.80
2022-08-11T00:46:26.060Z,26.80
2022-08-11T00:49:12.216Z,26.80
2022-08-11T00:52:04.480Z,26.80
2022-08-11T00:55:11.680Z,26.80
2022-08-11T00:58:15.096Z,26.70
2022-08-11T01:01:14.141Z,26.70
2022-08-11T01:03:59.195Z,26.80
2022-08-11T01:06:52.275Z,26.80
2022-08-11T01:09:35.762Z,26.70
2022-08-11T01:12:31.503Z,26.70
2022-08-11T01:15:23.846Z,26.70
2022-08-11T01:18:28.386Z,26.70
2022-08-11T01:21:33.466Z,26.70
2022-08-11T01:24:10.669Z,26.70
2022-08-11T01:26:52.685Z,26.70
2022-08-11T01:29:37.546Z,26.70
2022-08-11T01:32:29.378Z,26.70
2022-08-11T01:35:27.949Z,26.70
2022-08-11T01:38:31.781Z,26.60
2022-08-11T01:41:26.020Z,26.50
2022-08-11T01:44:12.800Z,26.30
2022-08-11T01:46:51.984Z,26.20
2022-08-11T01:50:07.774Z,26.10
2022-08-11T01:52:58.000Z,26.00
2022-08-11T01:55:43.698Z,25.90
2022-08-11T01:58:48.109Z,25.80
2022-08-11T02:01:32.970Z,25.70
2022-08-11T02:04:21.427Z,25.60
2022-08-11T02:07:26.347Z,25.50
2022-08-11T02:10:38.424Z,25.40
2022-08-11T02:13:40.421Z,25.30
2022-08-11T02:16:28.134Z,25.20
2022-08-11T02:19:35.766Z,25.10
2022-08-11T02:22:43.147Z,25.10
2022-08-11T02:25:33.270Z,25.10
2022-08-11T02:28:21.874Z,25.10
2022-08-11T02:32:10.971Z,25.20
2022-08-11T02:34:28.906Z,25.20
2022-08-11T02:37:14.125Z,25.10
2022-08-11T02:39:55.845Z,25.10
2022-08-11T02:42:42.538Z,25.00
2022-08-11T02:45:12.817Z,25.00
2022-08-11T02:48:39.797Z,24.90
2022-08-11T02:51:30.312Z,25.00
2022-08-11T02:54:11.662Z,24.90
2022-08-11T02:56:38.667Z,24.90
2022-08-11T02:59:35.919Z,24.80
2022-08-11T03:02:32.364Z,24.80
2022-08-11T03:05:14.577Z,24.80
2022-08-11T03:08:20.263Z,24.80
2022-08-11T03:11:50.907Z,24.70
2022-08-11T03:15:15.374Z,24.60
2022-08-11T03:17:56.196Z,24.60
2022-08-11T03:20:33.395Z,24.50
2022-08-11T03:23:19.949Z,24.40
2022-08-11T03:25:54.645Z,24.40
2022-08-11T03:29:12.602Z,24.40
2022-08-11T03:31:53.340Z,24.30
2022-08-11T03:34:25.274Z,24.30
2022-08-11T03:36:55.750Z,24.20
2022-08-11T03:39:58.057Z,24.20
2022-08-11T03:42:46.606Z,24.10
2022-08-11T03:45:31.108Z,24.10
2022-08-11T03:48:09.368Z,24.00
2022-08-11T03:50:55.366Z,24.00
2022-08-11T03:53:43.473Z,24.00
2022-08-11T03:56:25.793Z,23.90
2022-08-11T03:58:55.864Z,23.90
2022-08-11T04:01:46.108Z,23.90
2022-08-11T04:04:19.166Z,23.80
2022-08-11T04:07:00.470Z,23.80
2022-08-11T04:09:46.833Z,23.60
2022-08-11T04:12:36.633Z,23.70
2022-08-11T04:15:37.377Z,23.50
2022-08-11T04:18:41.680Z,23.50
2022-08-11T04:21:08.693Z,23.50
2022-08-11T04:24:34.380Z,23.40
2022-08-11T04:27:07.457Z,23.40
2022-08-11T04:30:16.784Z,23.40
2022-08-11T04:33:11.591Z,23.40
2022-08-11T04:35:58.456Z,23.40
2022-08-11T04:38:50.242Z,23.40
2022-08-11T04:42:00.977Z,23.40
2022-08-11T04:45:04.890Z,23.40
2022-08-11T04:48:13.699Z,23.40
2022-08-11T04:51:30.273Z,23.30
2022-08-11T04:54:27.946Z,23.30
2022-08-11T04:57:22.854Z,23.40
2022-08-11T05:00:11.322Z,23.40
2022-08-11T05:03:06.209Z,23.40
2022-08-11T05:06:16.640Z,23.60
2022-08-11T05:09:07.990Z,23.90
2022-08-11T05:12:02.070Z,24.20
2022-08-11T05:15:14.852Z,24.30
2022-08-11T05:18:14.405Z,24.80
2022-08-11T05:21:12.854Z,25.50
2022-08-11T05:24:07.863Z,26.00
2022-08-11T05:27:13.912Z,25.90
2022-08-11T05:30:22.024Z,25.70
2022-08-11T05:33:18.516Z,26.00
2022-08-11T05:36:00.756Z,26.80
2022-08-11T05:38:52.597Z,27.00
2022-08-11T05:41:43.070Z,26.70
2022-08-11T05:44:35.550Z,26.60
2022-08-11T05:47:21.495Z,26.40
2022-08-11T05:50:13.301Z,26.20
2022-08-11T05:53:09.253Z,26.10
2022-08-11T05:56:03.828Z,25.90
2022-08-11T05:58:45.175Z,25.90
2022-08-11T06:01:14.695Z,26.20
2022-08-11T06:04:03.910Z,26.20
2022-08-11T06:06:31.547Z,26.30
2022-08-11T06:09:01.025Z,26.60
2022-08-11T06:11:43.809Z,26.80
2022-08-11T06:14:12.440Z,27.20
2022-08-11T06:16:41.995Z,28.00
2022-08-11T06:19:10.466Z,29.10
2022-08-11T06:21:38.508Z,29.90
2022-08-11T06:24:12.927Z,30.80
2022-08-11T06:27:10.670Z,31.60
2022-08-11T06:29:54.269Z,32.20
2022-08-11T06:32:32.502Z,32.90
2022-08-11T06:35:37.961Z,33.60
2022-08-11T06:38:16.224Z,33.70
2022-08-11T06:41:09.162Z,33.80
2022-08-11T06:43:55.321Z,33.80
2022-08-11T06:46:39.033Z,34.00
2022-08-11T06:49:31.600Z,34.30
2022-08-11T06:52:34.068Z,34.60
2022-08-11T06:55:57.672Z,35.10
2022-08-11T06:59:00.305Z,35.50
2022-08-11T07:02:03.322Z,35.50
2022-08-11T07:04:51.929Z,35.60
2022-08-11T07:08:34.114Z,35.80
2022-08-11T07:11:24.345Z,36.20
2022-08-11T07:14:12.821Z,36.50
2022-08-11T07:16:44.252Z,36.80
2022-08-11T07:19:33.755Z,37.00
2022-08-11T07:22:23.346Z,37.30
2022-08-11T07:25:17.813Z,37.40
2022-08-11T07:28:29.630Z,37.70
2022-08-11T07:31:04.787Z,37.70
2022-08-11T07:34:07.618Z,36.50
2022-08-11T07:36:30.543Z,35.60
2022-08-11T07:38:58.820Z,35.20
2022-08-11T07:41:28.688Z,35.00
2022-08-11T07:44:08.892Z,34.80
2022-08-11T07:47:05.385Z,34.90
2022-08-11T07:49:55.260Z,35.10
2022-08-11T07:52:37.207Z,35.40
2022-08-11T07:55:06.130Z,35.90
2022-08-11T07:58:19.194Z,35.90
2022-08-11T08:01:10.781Z,35.50
2022-08-11T08:04:08.166Z,35.00
2022-08-11T08:06:55.187Z,35.10
2022-08-11T08:09:43.443Z,35.30
2022-08-11T08:12:30.779Z,35.30
2022-08-11T08:15:16.729Z,35.30
2022-08-11T08:18:09.162Z,35.20
2022-08-11T08:20:52.416Z,34.60
2022-08-11T08:23:34.833Z,34.00
2022-08-11T08:26:26.018Z,33.90
2022-08-11T08:28:55.184Z,34.00
2022-08-11T08:31:22.745Z,34.10
2022-08-11T08:33:50.190Z,34.40
2022-08-11T08:36:20.048Z,34.40
2022-08-11T08:38:56.141Z,34.50
2022-08-11T08:41:30.071Z,34.60
2022-08-11T08:44:34.659Z,34.80
2022-08-11T08:46:54.505Z,35.20
2022-08-11T08:49:34.147Z,35.80
2022-08-11T08:52:29.514Z,36.10
2022-08-11T08:54:58.170Z,36.60
2022-08-11T08:57:28.951Z,36.60
2022-08-11T08:59:58.005Z,36.40
2022-08-11T09:02:34.501Z,36.00
2022-08-11T09:05:04.584Z,36.10
2022-08-11T09:07:38.822Z,37.00
2022-08-11T09:10:10.419Z,37.80
2022-08-11T09:12:41.608Z,38.90
2022-08-11T09:15:11.712Z,39.80
2022-08-11T09:17:50.449Z,40.40
2022-08-11T09:20:21.826Z,40.60
2022-08-11T09:26:16.974Z,41.00
2022-08-11T09:28:45.649Z,41.30
2022-08-11T09:31:14.303Z,41.30
2022-08-11T09:33:43.343Z,41.10
2022-08-11T09:36:30.735Z,41.10
2022-08-11T09:39:18.257Z,41.00
2022-08-11T09:42:01.908Z,40.50
2022-08-11T09:44:52.983Z,40.10
2022-08-11T09:47:31.689Z,40.30
2022-08-11T09:50:01.072Z,40.20
2022-08-11T09:52:32.211Z,40.10
2022-08-11T09:54:59.961Z,40.10
2022-08-11T09:57:45.692Z,40.20
2022-08-11T10:00:15.352Z,40.30
2022-08-11T10:02:54.579Z,40.30
2022-08-11T10:05:40.555Z,40.40
2022-08-11T10:08:12.121Z,40.60
2022-08-11T10:10:40.792Z,41.00
2022-08-11T10:14:31.392Z,41.10
2022-08-11T10:16:15.296Z,41.50
2022-08-11T10:18:51.615Z,41.70
2022-08-11T10:22:12.284Z,41.90
2022-08-11T10:25:00.251Z,42.20
2022-08-11T10:28:17.837Z,42.10
2022-08-11T10:30:33.397Z,41.80
2022-08-11T10:33:37.776Z,41.30
2022-08-11T10:36:16.060Z,41.40
2022-08-11T10:38:46.806Z,41.70
2022-08-11T10:41:33.138Z,41.60
2022-08-11T10:44:02.436Z,41.70
2022-08-11T10:46:50.254Z,42.10
2022-08-11T10:49:19.050Z,42.70
2022-08-11T10:52:05.750Z,43.00
2022-08-11T10:54:53.239Z,43.00
2022-08-11T10:57:39.545Z,43.40
2022-08-11T11:00:09.755Z,43.50
2022-08-11T11:02:37.313Z,43.30
2022-08-11T11:05:09.578Z,43.10
2022-08-11T11:08:03.227Z,43.00
2022-08-11T11:10:31.960Z,42.70
2022-08-11T11:13:18.330Z,41.10
2022-08-11T11:16:06.218Z,39.40
2022-08-11T11:18:36.637Z,38.80
2022-08-11T11:21:07.831Z,39.10
2022-08-11T11:23:51.758Z,38.90
2022-08-11T11:26:52.983Z,38.30
2022-08-11T11:29:28.649Z,37.60
2022-08-11T11:32:23.057Z,37.30
2022-08-11T11:35:09.090Z,37.50
2022-08-11T11:37:37.149Z,38.10
2022-08-11T11:40:11.056Z,38.80
2022-08-11T11:42:40.469Z,39.40
2022-08-11T11:45:10.220Z,40.10
2022-08-11T11:47:52.565Z,41.20
2022-08-11T11:50:32.748Z,42.00
2022-08-11T11:53:02.151Z,42.20
2022-08-11T11:55:30.787Z,42.20
2022-08-11T11:58:19.070Z,42.40
2022-08-11T12:01:06.068Z,42.50
2022-08-11T12:03:35.427Z,42.60
2022-08-11T12:06:03.914Z,42.80
2022-08-11T12:08:32.092Z,43.00
2022-08-11T12:11:20.518Z,43.30
2022-08-11T12:13:50.508Z,43.20
2022-08-11T12:16:33.125Z,42.40
2022-08-11T12:19:24.586Z,42.50
2022-08-11T12:22:13.358Z,42.90
2022-08-11T12:24:59.673Z,43.10
2022-08-11T12:27:30.047Z,43.10
2022-08-11T12:30:08.506Z,43.20
2022-08-11T12:32:38.531Z,43.50
2022-08-11T12:35:07.477Z,43.80
2022-08-11T12:37:40.896Z,44.40
2022-08-11T12:40:43.336Z,45.10
2022-08-11T12:43:42.762Z,45.60
2022-08-11T12:46:25.491Z,45.80
2022-08-11T12:49:16.867Z,45.70
2022-08-11T12:52:01.460Z,45.40
2022-08-11T12:54:49.818Z,44.30
2022-08-11T12:57:44.673Z,43.40
2022-08-11T13:00:31.672Z,42.70
2022-08-11T13:03:18.175Z,42.00
2022-08-11T13:05:47.467Z,41.90
2022-08-11T13:08:15.683Z,41.60
2022-08-11T13:11:03.469Z,41.00
2022-08-11T13:13:52.653Z,40.20
2022-08-11T13:16:20.799Z,39.30
2022-08-11T13:18:48.796Z,38.40
2022-08-11T13:21:20.454Z,37.70
2022-08-11T13:24:01.294Z,37.40
2022-08-11T13:26:47.191Z,37.00
2022-08-11T13:29:19.844Z,36.80
2022-08-11T13:31:48.099Z,36.70
2022-08-11T13:34:19.795Z,36.50
2022-08-11T13:36:50.225Z,36.20
2022-08-11T13:39:18.438Z,35.50
2022-08-11T13:41:47.907Z,35.10
2022-08-11T13:44:21.832Z,35.00
2022-08-11T13:46:56.270Z,35.10
2022-08-11T13:49:24.640Z,35.10
2022-08-11T13:51:54.331Z,35.20
2022-08-11T13:54:38.493Z,35.20
2022-08-11T13:57:13.622Z,34.80
2022-08-11T14:00:09.648Z,34.70
2022-08-11T14:02:43.556Z,34.70
2022-08-11T14:05:15.649Z,34.70
2022-08-11T14:07:48.388Z,34.60
2022-08-11T14:10:18.936Z,34.70
2022-08-11T14:13:12.685Z,34.60
2022-08-11T14:15:45.221Z,34.40
2022-08-11T14:18:20.015Z,34.40
2022-08-11T14:21:10.676Z,34.30
2022-08-11T14:23:47.502Z,34.20
2022-08-11T14:26:31.214Z,34.40
2022-08-11T14:29:02.811Z,34.50
2022-08-11T14:31:32.127Z,34.50
2022-08-11T14:34:03.609Z,34.30
2022-08-11T14:36:34.557Z,34.10
2022-08-11T14:39:13.293Z,34.10
2022-08-11T14:42:10.344Z,34.10
2022-08-11T14:45:07.803Z,34.30
2022-08-11T14:47:37.246Z,34.00
2022-08-11T14:50:11.258Z,33.70
2022-08-11T14:52:58.108Z,33.70
2022-08-11T14:55:48.906Z,33.60
2022-08-11T14:58:18.920Z,33.40
2022-08-11T15:00:47.147Z,33.50
2022-08-11T15:03:15.445Z,33.80
2022-08-11T15:05:57.035Z,34.10
2022-08-11T15:08:49.660Z,34.30
2022-08-11T15:11:38.111Z,34.40
2022-08-11T15:14:07.607Z,34.30
2022-08-11T15:17:01.471Z,34.00
2022-08-11T15:19:40.655Z,33.70
2022-08-11T15:22:29.060Z,33.40
2022-08-11T15:24:58.986Z,33.30
2022-08-11T15:27:47.928Z,33.30
2022-08-11T15:30:44.028Z,33.30
2022-08-11T15:33:32.276Z,33.20
2022-08-11T15:36:21.787Z,33.00
2022-08-11T15:38:58.293Z,33.00
2022-08-11T15:42:12.868Z,32.90
2022-08-11T15:45:04.579Z,33.00
2022-08-11T15:48:05.040Z,33.10
2022-08-11T15:50:37.539Z,33.20
2022-08-11T15:53:18.008Z,33.40
2022-08-11T15:55:46.068Z,33.40
2022-08-11T15:58:32.769Z,33.30
2022-08-11T16:01:20.352Z,33.20
2022-08-11T16:04:13.764Z,32.90
2022-08-11T16:06:51.566Z,32.70
2022-08-11T16:09:24.951Z,32.50
2022-08-11T16:11:57.090Z,32.50
2022-08-11T16:14:44.955Z,32.50
2022-08-11T16:17:15.211Z,32.50
2022-08-11T16:19:44.234Z,32.50
2022-08-11T16:22:12.963Z,32.40
2022-08-11T16:27:03.732Z,32.30
2022-08-11T16:27:35.544Z,32.20
2022-08-11T16:30:06.758Z,32.20
2022-08-11T16:32:36.751Z,32.00
2022-08-11T16:35:28.023Z,32.00
2022-08-11T16:38:15.212Z,31.90
2022-08-11T16:40:43.730Z,31.80
2022-08-11T16:43:34.325Z,31.70
2022-08-11T16:46:22.528Z,31.60
2022-08-11T16:48:53.498Z,31.50
2022-08-11T16:51:21.617Z,31.50
2022-08-11T16:54:04.573Z,31.40
2022-08-11T16:56:50.804Z,31.40
2022-08-11T16:59:26.472Z,31.30
2022-08-11T17:02:03.012Z,31.20
2022-08-11T17:05:09.729Z,31.10
2022-08-11T17:07:58.276Z,31.00
2022-08-11T17:10:55.658Z,30.80
2022-08-11T17:13:31.811Z,30.80
2022-08-11T17:16:09.370Z,30.70
2022-08-11T17:18:51.329Z,30.60
2022-08-11T17:21:29.932Z,30.50
2022-08-11T17:24:07.995Z,30.40
2022-08-11T17:26:58.705Z,30.20
2022-08-11T17:29:32.096Z,30.10
2022-08-11T17:32:22.490Z,30.10
2022-08-11T17:35:12.358Z,30.00
2022-08-11T17:37:43.377Z,29.90
2022-08-11T17:40:13.832Z,29.80
2022-08-11T17:43:02.158Z,29.80
2022-08-11T17:46:01.444Z,29.70
2022-08-11T17:48:36.123Z,29.70
2022-08-11T17:51:37.864Z,29.60
2022-08-11T17:54:25.857Z,29.50
2022-08-11T17:57:20.502Z,29.40
2022-08-11T17:59:53.913Z,29.40
2022-08-11T18:02:52.039Z,29.40
2022-08-11T18:05:23.210Z,29.40
2022-08-11T18:08:12.035Z,29.30
2022-08-11T18:11:00.605Z,29.20
2022-08-11T18:13:50.129Z,29.10
2022-08-11T18:16:37.814Z,29.00
2022-08-11T18:19:25.298Z,28.80
2022-08-11T18:22:24.376Z,28.70
2022-08-11T18:25:19.110Z,28.70
2022-08-11T18:28:07.047Z,28.60
2022-08-11T18:31:03.908Z,28.60
2022-08-11T18:34:09.741Z,28.50
2022-08-11T18:37:07.652Z,28.40
2022-08-11T18:40:01.113Z,28.30
2022-08-11T18:42:49.545Z,28.20
2022-08-11T18:45:45.909Z,28.20
2022-08-11T18:48:41.057Z,28.10
2022-08-11T18:51:30.560Z,28.00
2022-08-11T18:54:27.302Z,27.90
2022-08-11T18:57:16.302Z,27.80
2022-08-11T19:00:04.085Z,27.70
2022-08-11T19:02:51.043Z,27.60
2022-08-11T19:06:31.980Z,27.50
2022-08-11T19:08:53.847Z,27.50
2022-08-11T19:11:42.581Z,27.40
2022-08-11T19:14:30.828Z,27.30
2022-08-11T19:17:44.525Z,27.30
2022-08-11T19:20:29.256Z,27.20
2022-08-11T19:23:16.779Z,27.20
2022-08-11T19:26:03.457Z,27.10
2022-08-11T19:28:50.716Z,27.00
2022-08-11T19:31:41.112Z,27.00
2022-08-11T19:34:35.524Z,27.00
2022-08-11T19:37:24.985Z,26.90
2022-08-11T19:40:21.154Z,26.90
2022-08-11T19:43:18.650Z,26.90
2022-08-11T19:46:16.121Z,26.80
2022-08-11T19:49:04.333Z,26.70
2022-08-11T19:51:54.388Z,26.70
2022-08-11T19:54:45.253Z,26.70
2022-08-11T19:57:35.735Z,26.60
2022-08-11T20:00:30.144Z,26.60
2022-08-11T20:03:17.609Z,26.50
2022-08-11T20:06:06.295Z,26.50
2022-08-11T20:08:57.788Z,26.50
2022-08-11T20:11:46.995Z,26.50
2022-08-11T20:14:34.768Z,26.50
2022-08-11T20:17:21.474Z,26.50
2022-08-11T20:20:09.023Z,26.40
2022-08-11T20:22:54.692Z,26.40
2022-08-11T20:25:42.336Z,26.40
2022-08-11T20:28:29.728Z,26.50
2022-08-11T20:31:15.604Z,26.50
2022-08-11T20:34:02.676Z,26.50
2022-08-11T20:36:54.158Z,26.40
2022-08-11T20:39:41.717Z,26.40
2022-08-11T20:42:30.745Z,26.40
2022-08-11T20:45:19.582Z,26.50
2022-08-11T20:48:14.513Z,26.40
2022-08-11T20:51:06.406Z,26.40
2022-08-11T20:53:57.966Z,26.40
2022-08-11T20:56:47.359Z,26.30
2022-08-11T20:59:49.340Z,26.30
2022-08-11T21:02:44.462Z,26.10
2022-08-11T21:06:09.009Z,25.90
2022-08-11T21:08:42.496Z,25.70
2022-08-11T21:11:30.931Z,25.60
2022-08-11T21:14:18.457Z,25.40
2022-08-11T21:17:28.019Z,25.30
2022-08-11T21:20:21.146Z,25.30
2022-08-11T21:23:24.270Z,25.20
2022-08-11T21:26:29.752Z,25.10
2022-08-11T21:29:18.010Z,25.00
2022-08-11T21:32:04.440Z,24.90
2022-08-11T21:34:51.377Z,24.90
2022-08-11T21:37:39.251Z,24.90
2022-08-11T21:40:27.982Z,24.80
2022-08-11T21:43:15.836Z,24.80
2022-08-11T21:46:02.585Z,24.80
2022-08-11T21:48:49.362Z,24.50
2022-08-11T21:51:34.822Z,24.30
2022-08-11T21:54:20.861Z,24.10
2022-08-11T21:57:07.159Z,24.00
2022-08-11T22:00:14.931Z,23.90
2022-08-11T22:03:05.642Z,23.90
2022-08-11T22:05:52.841Z,23.80
2022-08-11T22:08:38.808Z,23.70
2022-08-11T22:11:32.478Z,23.70
2022-08-11T22:14:22.597Z,23.60
2022-08-11T22:17:09.156Z,23.60
2022-08-11T22:20:00.788Z,23.50
2022-08-11T22:22:52.876Z,23.50
2022-08-11T22:25:55.044Z,23.40
2022-08-11T22:28:45.211Z,23.30
2022-08-11T22:31:31.146Z,23.20
2022-08-11T22:34:17.138Z,23.20
2022-08-11T22:37:04.918Z,23.10
2022-08-11T22:39:59.570Z,23.00
2022-08-11T22:42:50.272Z,22.90
2022-08-11T22:45:36.719Z,22.80
2022-08-11T22:48:24.223Z,22.70
2022-08-11T22:51:11.543Z,22.60
2022-08-11T22:53:59.238Z,22.50
2022-08-11T22:56:50.081Z,22.50
2022-08-11T22:59:38.061Z,22.50
2022-08-11T23:02:25.448Z,22.50
2022-08-11T23:05:11.843Z,22.50
2022-08-11T23:07:59.660Z,22.50
2022-08-11T23:10:46.131Z,22.60
2022-08-11T23:13:32.563Z,22.60
2022-08-11T23:16:18.932Z,22.60
2022-08-11T23:19:05.530Z,22.60
2022-08-11T23:21:53.005Z,22.60
2022-08-11T23:24:40.438Z,22.60
2022-08-11T23:27:28.395Z,22.60
2022-08-11T23:30:18.687Z,22.60
2022-08-11T23:33:07.131Z,22.60
2022-08-11T23:35:55.518Z,22.60
2022-08-11T23:38:44.156Z,22.60
2022-08-11T23:41:32.504Z,22.60
2022-08-11T23:44:22.887Z,22.50
2022-08-11T23:47:11.761Z,22.40
2022-08-11T23:49:58.076Z,22.40
2022-08-11T23:52:45.830Z,22.40
2022-08-11T23:55:31.276Z,22.30
2022-08-11T23:58:17.154Z,22.30
